Time;durP1;ratioP1;P1;durP2;ratioP2;P2;SDS_P1;SDS_P2;PMS_P1;PMS_P2;Temp;Humidity;BMP_temperature;BMP_pressure;BME280_temperature;BME280_humidity;BME280_pressure;Samples;Min_cycle;Max_cycle;Signal;HPM_P1;HPM_P2
2023/02/13 15:27:49;;;;;;;;;;;;;;;12.54;45.66;100383.59;5929131;23;19926;-76
2023/02/13 15:30:19;;;;;;;;;;;;;;;12.58;44.78;100383.31;4960638;28;19933;-78
2023/02/13 15:32:45;;;;;;;;;;;;;;;12.49;44.02;100383.84;4933585;29;19945;-71
2023/02/13 15:35:20;;;;;;;;;;;;;;;12.58;45.62;100390.34;4948956;29;19939;-74
2023/02/13 15:37:45;;;;;;;;;;;;;;;12.56;43.74;100379.94;4951333;28;20296;-73
2023/02/13 15:40:15;;;;;;;;;;;;;;;12.47;42.67;100383.09;4922807;29;19931;-73
2023/02/13 15:42:40;;;;;;;;;;;;;;;12.44;44.85;100376.25;4931064;29;20424;-71
2023/02/13 15:45:11;;;;;;;;;;;;;;;12.34;43.36;100385.59;4949735;29;19922;-71
2023/02/13 15:47:37;;;;;;;;;;;;;;;12.26;42.33;100385.19;4950627;29;20017;-72
2023/02/13 15:50:02;;;;;;;;;;;;;;;12.13;41.55;100390.28;4952377;29;20014;-70
2023/02/13 15:52:32;;;;;;;;;;;;;;;12.06;42.89;100387.13;4950163;28;19933;-74
2023/02/13 15:54:57;;;;;;;;;;;;;;;11.95;41.65;100392.13;4950298;29;19926;-69
2023/02/13 15:57:22;;;;;;;;;;;;;;;11.82;40.40;100391.94;4950753;29;20339;-70
2023/02/13 15:59:48;;;;;;;;;;;;;;;11.76;46.15;100395.75;4933502;29;19922;-75
2023/02/13 16:02:21;;;;;;;;;;;;;;;11.85;47.41;100401.41;4950836;29;20028;-73
2023/02/13 16:04:46;;;;;;;;;;;;;;;11.72;45.32;100396.84;4950604;29;20324;-72
2023/02/13 16:07:12;;;;;;;;;;;;;;;11.59;43.87;100395.78;4951094;28;19919;-74
2023/02/13 16:09:37;;;;;;;;;;;;;;;11.64;48.18;100404.25;4950114;29;20094;-73
2023/02/13 16:12:04;;;;;;;;;;;;;;;11.65;46.42;100405.09;4950902;28;19965;-72
2023/02/13 16:14:30;;;;;;;;;;;;;;;11.87;53.23;100403.00;4951567;29;20397;-86
2023/02/13 16:17:05;;;;;;;;;;;;;;;12.23;50.87;100417.59;4935199;29;19926;-73
2023/02/13 16:19:49;;;;;;;;;;;;;;;12.47;51.08;100411.91;4948764;29;19923;-74
2023/02/13 16:22:30;;;;;;;;;;;;;;;12.41;47.89;100410.50;4965169;28;19925;-69
2023/02/13 16:25:00;;;;;;;;;;;;;;;12.37;47.30;100413.38;4950362;29;19918;-72
2023/02/13 16:27:25;;;;;;;;;;;;;;;12.42;53.96;100420.03;4926981;29;19922;-72
2023/02/13 16:29:53;;;;;;;;;;;;;;;12.99;74.52;100427.19;4949052;28;19933;-72
2023/02/13 16:32:21;;;;;;;;;;;;;;;12.97;61.54;100423.00;4954451;29;19919;-78
2023/02/13 16:34:47;;;;;;;;;;;;;;;13.08;61.77;100424.97;4954286;28;19923;-73
2023/02/13 16:37:24;;;;;;;;;;;;;;;13.30;72.84;100425.38;4949499;29;19918;-75
2023/02/13 16:39:50;;;;;;;;;;;;;;;13.21;57.32;100426.75;4952040;28;19929;-73
2023/02/13 16:42:17;;;;;;;;;;;;;;;13.06;51.64;100429.47;4952864;29;20338;-75
2023/02/13 16:44:43;;;;;;;;;;;;;;;12.83;48.36;100415.94;4952183;28;19918;-74
2023/02/13 16:47:15;;;;;;;;;;;;;;;12.65;45.22;100415.22;4946398;29;19947;-74
2023/02/13 16:49:40;;;;;;;;;;;;;;;12.42;43.09;100416.56;4951994;29;19926;-75
2023/02/13 16:52:11;;;;;;;;;;;;;;;12.19;41.13;100415.25;4946008;29;20401;-71
2023/02/13 16:54:55;;;;;;;;;;;;;;;12.15;45.20;100414.59;4944533;29;20441;-78
2023/02/13 16:57:29;;;;;;;;;;;;;;;11.96;41.48;100411.31;4953324;29;19926;-75
2023/02/13 17:00:00;;;;;;;;;;;;;;;11.76;39.19;100406.22;4951836;29;19918;-75
2023/02/13 17:02:33;;;;;;;;;;;;;;;11.57;37.88;100409.00;4946886;28;19918;-73
2023/02/13 17:05:07;;;;;;;;;;;;;;;11.40;37.56;100409.00;4944872;29;20022;-72
2023/02/13 17:07:36;;;;;;;;;;;;;;;11.39;47.18;100408.19;4951974;29;20444;-73
2023/02/13 17:10:06;;;;;;;;;;;;;;;11.27;43.55;100413.22;4951578;28;19922;-79
2023/02/13 17:12:34;;;;;;;;;;;;;;;11.10;42.64;100414.94;4943899;29;19923;-75
2023/02/13 17:14:59;;;;;;;;;;;;;;;11.02;43.35;100411.88;4954771;29;19919;-78
2023/02/13 17:17:28;;;;;;;;;;;;;;;11.02;48.59;100410.13;4955906;28;20013;-81
2023/02/13 17:19:55;;;;;;;;;;;;;;;10.93;45.63;100404.53;4955493;29;20008;-79
2023/02/13 17:22:22;;;;;;;;;;;;;;;10.82;44.13;100400.66;4952834;29;19961;-78
2023/02/13 17:24:47;;;;;;;;;;;;;;;10.79;47.86;100407.81;4945495;28;19923;-75
2023/02/13 17:27:14;;;;;;;;;;;;;;;10.75;49.53;100404.50;4943238;29;20023;-78
2023/02/13 17:29:40;;;;;;;;;;;;;;;10.67;47.28;100404.91;4958889;28;19948;-75
2023/02/13 17:32:05;;;;;;;;;;;;;;;10.49;43.20;100405.81;4972987;28;20460;-73
2023/02/13 17:34:30;;;;;;;;;;;;;;;10.19;42.57;100418.56;4957153;28;19949;-74
2023/02/13 17:36:55;;;;;;;;;;;;;;;9.85;40.67;100405.34;4956429;28;19972;-72
2023/02/13 17:39:21;;;;;;;;;;;;;;;9.57;42.10;100404.00;4956372;28;19972;-70
2023/02/13 17:41:46;;;;;;;;;;;;;;;9.57;49.09;100401.41;4938911;28;20060;-70
2023/02/13 17:44:12;;;;;;;;;;;;;;;9.54;49.39;100406.75;4957080;28;20286;-69
2023/02/13 17:46:37;;;;;;;;;;;;;;;9.54;49.98;100398.09;4956728;28;19918;-70
2023/02/13 17:49:03;;;;;;;;;;;;;;;9.53;50.32;100399.00;4948343;28;19965;-72
2023/02/13 17:51:29;;;;;;;;;;;;;;;9.51;50.75;100406.06;4956712;28;20359;-78
2023/02/13 17:53:57;;;;;;;;;;;;;;;9.49;51.02;100400.91;4932487;28;19919;-78
2023/02/13 17:56:23;;;;;;;;;;;;;;;9.46;51.54;100406.25;4957140;28;20399;-77
2023/02/13 17:58:48;;;;;;;;;;;;;;;9.43;51.57;100403.78;4957767;28;19918;-74
2023/02/13 18:01:14;;;;;;;;;;;;;;;9.39;52.06;100403.09;4958047;28;19924;-74
2023/02/13 18:03:39;;;;;;;;;;;;;;;9.36;52.41;100403.22;4957594;28;19918;-76
2023/02/13 18:06:05;;;;;;;;;;;;;;;9.36;52.51;100404.97;4941237;28;19949;-73
2023/02/13 18:08:30;;;;;;;;;;;;;;;9.32;52.80;100401.66;4957612;28;19925;-74
2023/02/13 18:10:56;;;;;;;;;;;;;;;9.31;52.91;100404.31;4941470;28;19933;-73
2023/02/13 18:13:21;;;;;;;;;;;;;;;9.36;59.41;100402.34;4943201;28;19933;-78
2023/02/13 18:15:46;;;;;;;;;;;;;;;9.68;63.58;100394.84;4957536;28;20396;-74
2023/02/13 18:18:13;;;;;;;;;;;;;;;9.63;60.80;100392.47;4957447;28;19980;-74
2023/02/13 18:20:39;;;;;;;;;;;;;;;9.62;59.47;100389.94;4957546;28;20020;-74
2023/02/13 18:23:05;;;;;;;;;;;;;;;9.57;58.39;100387.53;4957248;28;20423;-74
2023/02/13 18:25:31;;;;;;;;;;;;;;;9.52;57.93;100392.94;4957224;28;20394;-73
2023/02/13 18:27:56;;;;;;;;;;;;;;;9.47;57.39;100383.63;4956839;28;19926;-74
2023/02/13 18:30:21;;;;;;;;;;;;;;;9.41;57.19;100388.22;4975203;28;19976;-72
2023/02/13 18:32:51;;;;;;;;;;;;;;;9.45;58.81;100382.88;4976229;28;19929;-76
2023/02/13 18:35:17;;;;;;;;;;;;;;;9.42;58.49;100381.22;4960295;28;19921;-74
2023/02/13 18:37:43;;;;;;;;;;;;;;;9.37;57.94;100380.59;4976593;28;19925;-73
2023/02/13 18:40:09;;;;;;;;;;;;;;;9.41;60.42;100377.78;4956193;28;20274;-76
2023/02/13 18:42:34;;;;;;;;;;;;;;;9.37;59.43;100380.59;4973566;28;20282;-81
2023/02/13 18:45:00;;;;;;;;;;;;;;;9.33;59.18;100381.63;4973333;28;19972;-82
2023/02/13 18:47:25;;;;;;;;;;;;;;;9.27;58.76;100372.34;4976655;28;19972;-86
2023/02/13 18:49:58;;;;;;;;;;;;;;;9.21;58.11;100376.06;4984021;28;19981;-80
2023/02/13 18:52:23;;;;;;;;;;;;;;;9.17;58.10;100378.88;4976794;28;20399;-78
2023/02/13 18:54:50;;;;;;;;;;;;;;;9.10;57.89;100380.91;4974445;28;19922;-88
2023/02/13 18:57:17;;;;;;;;;;;;;;;9.04;57.66;100383.78;4976456;28;20356;-83
2023/02/13 18:59:43;;;;;;;;;;;;;;;8.99;57.78;100380.53;4974437;28;20306;-83
2023/02/13 19:02:09;;;;;;;;;;;;;;;8.92;57.84;100372.16;4976076;28;19933;-84
2023/02/13 19:04:35;;;;;;;;;;;;;;;8.85;57.50;100381.97;4975325;28;19918;-77
2023/02/13 19:07:01;;;;;;;;;;;;;;;8.80;57.65;100378.72;4988101;28;19921;-86
2023/02/13 19:09:27;;;;;;;;;;;;;;;8.77;57.95;100378.84;4978681;28;19929;-81
2023/02/13 19:11:52;;;;;;;;;;;;;;;8.74;57.49;100365.97;4961246;28;20753;-81
2023/02/13 19:14:17;;;;;;;;;;;;;;;8.69;57.91;100373.97;4959899;28;19918;-81
2023/02/13 19:16:43;;;;;;;;;;;;;;;8.65;57.64;100369.81;4959793;28;19921;-82
2023/02/13 19:19:08;;;;;;;;;;;;;;;8.61;57.43;100370.00;4958833;28;20005;-83
2023/02/13 19:21:36;;;;;;;;;;;;;;;8.67;60.36;100360.16;4975695;28;19971;-80
2023/02/13 19:24:07;;;;;;;;;;;;;;;8.63;60.00;100369.03;4988926;28;19922;-75
2023/02/13 19:26:32;;;;;;;;;;;;;;;8.60;59.12;100368.28;4966443;28;19918;-76
2023/02/13 19:28:58;;;;;;;;;;;;;;;8.57;59.16;100368.44;4957313;28;19925;-74
2023/02/13 19:31:26;;;;;;;;;;;;;;;8.54;58.46;100364.22;4957665;28;21655;-75
2023/02/13 19:33:52;;;;;;;;;;;;;;;8.53;58.24;100362.50;4974487;28;19929;-76
2023/02/13 19:36:19;;;;;;;;;;;;;;;8.46;58.02;100361.06;4982988;28;19918;-75
2023/02/13 19:38:44;;;;;;;;;;;;;;;8.42;57.94;100360.31;4982076;28;19925;-78
2023/02/13 19:41:12;;;;;;;;;;;;;;;8.38;58.52;100355.31;4974372;28;19922;-79
2023/02/13 19:43:37;;;;;;;;;;;;;;;8.33;58.22;100360.69;4981182;28;20012;-76
2023/02/13 19:46:12;;;;;;;;;;;;;;;8.54;63.39;100361.63;4983961;28;20471;-75
2023/02/13 19:48:41;;;;;;;;;;;;;;;8.76;62.98;100358.94;4957720;28;19943;-81
2023/02/13 19:51:10;;;;;;;;;;;;;;;8.85;63.73;100355.91;4949763;28;20008;-73
2023/02/13 19:53:35;;;;;;;;;;;;;;;8.84;61.48;100353.41;4972720;28;19932;-76
2023/02/13 19:56:01;;;;;;;;;;;;;;;9.10;63.10;100351.41;4962036;28;20332;-73
2023/02/13 19:58:26;;;;;;;;;;;;;;;9.45;64.18;100355.03;4962742;28;20393;-83
2023/02/13 20:00:51;;;;;;;;;;;;;;;9.45;61.44;100357.63;4955508;28;20012;-73
2023/02/13 20:03:17;;;;;;;;;;;;;;;9.30;60.79;100361.78;4981301;28;19929;-77
2023/02/13 20:05:42;;;;;;;;;;;;;;;9.14;60.14;100361.63;4981469;28;19922;-75
2023/02/13 20:08:08;;;;;;;;;;;;;;;8.98;59.49;100352.78;4957030;28;20347;-75
2023/02/13 20:10:33;;;;;;;;;;;;;;;8.85;59.87;100345.50;4980916;28;19940;-75
2023/02/13 20:12:58;;;;;;;;;;;;;;;8.76;59.42;100347.66;4973409;28;19918;-77
2023/02/13 20:15:24;;;;;;;;;;;;;;;8.67;59.09;100344.53;4973339;28;19918;-77
2023/02/13 20:17:50;;;;;;;;;;;;;;;8.62;59.47;100345.69;4981334;28;20061;-76
2023/02/13 20:20:15;;;;;;;;;;;;;;;8.56;59.04;100343.31;4949068;28;19933;-77
2023/02/13 20:22:41;;;;;;;;;;;;;;;8.50;58.81;100334.00;4967980;28;19930;-77
2023/02/13 20:25:06;;;;;;;;;;;;;;;8.46;58.70;100332.44;4957032;28;20300;-76
2023/02/13 20:27:40;;;;;;;;;;;;;;;8.41;58.44;100329.16;4981125;28;19928;-85
2023/02/13 20:30:06;;;;;;;;;;;;;;;8.35;58.46;100330.28;4976384;28;19933;-77
2023/02/13 20:32:31;;;;;;;;;;;;;;;8.29;58.72;100328.75;4977253;28;19922;-77
2023/02/13 20:34:57;;;;;;;;;;;;;;;8.23;58.77;100317.75;4937087;28;19922;-78
2023/02/13 20:37:22;;;;;;;;;;;;;;;8.19;58.39;100321.38;4937347;28;19918;-78
2023/02/13 20:39:47;;;;;;;;;;;;;;;8.15;58.48;100313.72;4977905;28;19922;-77
2023/02/13 20:42:13;;;;;;;;;;;;;;;8.10;58.74;100309.63;4952664;28;19929;-76
2023/02/13 20:44:38;;;;;;;;;;;;;;;8.07;58.30;100305.38;4955533;28;19944;-76
2023/02/13 20:47:03;;;;;;;;;;;;;;;8.02;58.12;100303.88;4977169;28;19918;-76
2023/02/13 20:49:29;;;;;;;;;;;;;;;7.97;58.38;100304.91;4970772;28;19923;-79
2023/02/13 20:51:54;;;;;;;;;;;;;;;7.92;57.92;100299.06;4977984;28;19937;-74
2023/02/13 20:54:19;;;;;;;;;;;;;;;7.88;58.46;100301.84;4953965;28;19918;-74
2023/02/13 20:56:46;;;;;;;;;;;;;;;7.83;58.49;100304.63;4955898;28;19934;-75
2023/02/13 20:59:11;;;;;;;;;;;;;;;7.81;58.05;100303.81;4937529;28;20067;-74
2023/02/13 21:01:40;;;;;;;;;;;;;;;7.75;58.03;100302.31;4969393;28;19926;-75
2023/02/13 21:04:05;;;;;;;;;;;;;;;7.72;58.34;100304.22;4976609;28;19918;-74
2023/02/13 21:06:32;;;;;;;;;;;;;;;7.68;58.23;100302.63;4937975;28;19929;-75
2023/02/13 21:08:57;;;;;;;;;;;;;;;7.66;57.93;100291.44;4978576;28;20006;-76
2023/02/13 21:11:23;;;;;;;;;;;;;;;7.62;58.19;100290.69;4979792;28;20472;-73
2023/02/13 21:13:48;;;;;;;;;;;;;;;7.59;58.46;100291.69;4981669;28;19985;-76
2023/02/13 21:16:14;;;;;;;;;;;;;;;7.56;58.39;100290.97;4982614;28;19932;-75
2023/02/13 21:18:40;;;;;;;;;;;;;;;7.53;58.51;100288.50;4956891;28;19918;-76
2023/02/13 21:21:05;;;;;;;;;;;;;;;7.51;58.27;100287.69;4982945;28;19919;-77
2023/02/13 21:23:31;;;;;;;;;;;;;;;7.50;58.23;100286.00;4982682;28;20738;-79
2023/02/13 21:25:59;;;;;;;;;;;;;;;7.48;58.07;100287.78;4956263;28;19926;-76
2023/02/13 21:28:26;;;;;;;;;;;;;;;7.45;57.91;100287.91;4968941;28;19926;-77
2023/02/13 21:30:51;;;;;;;;;;;;;;;7.42;58.55;100288.91;4974758;28;19917;-78
2023/02/13 21:33:17;;;;;;;;;;;;;;;7.42;58.50;100281.94;4975841;28;19975;-78
2023/02/13 21:35:42;;;;;;;;;;;;;;;7.40;58.46;100275.97;4973157;28;20016;-78
2023/02/13 21:38:07;;;;;;;;;;;;;;;7.38;58.55;100269.97;4974902;28;19925;-78
2023/02/13 21:40:33;;;;;;;;;;;;;;;7.37;58.83;100275.25;4992789;28;19952;-77
2023/02/13 21:42:58;;;;;;;;;;;;;;;7.35;58.59;100266.63;4975449;28;20388;-76
2023/02/13 21:45:23;;;;;;;;;;;;;;;7.33;58.26;100258.91;4974495;28;19918;-76
2023/02/13 21:47:49;;;;;;;;;;;;;;;7.31;58.82;100263.31;4974278;28;19926;-76
2023/02/13 21:50:14;;;;;;;;;;;;;;;7.29;58.73;100265.16;4973366;28;19929;-78
2023/02/13 21:52:39;;;;;;;;;;;;;;;7.27;58.84;100258.31;4974969;28;19932;-76
2023/02/13 21:55:05;;;;;;;;;;;;;;;7.26;58.36;100260.06;4975311;28;20421;-79
2023/02/13 21:57:30;;;;;;;;;;;;;;;7.23;58.28;100266.22;4958724;28;19918;-77
2023/02/13 21:59:56;;;;;;;;;;;;;;;7.23;58.35;100257.59;4973763;28;19926;-74
2023/02/13 22:02:21;;;;;;;;;;;;;;;7.21;58.15;100267.16;4956067;28;19972;-73
2023/02/13 22:04:47;;;;;;;;;;;;;;;7.19;58.95;100258.59;4993211;28;19928;-75
2023/02/13 22:07:12;;;;;;;;;;;;;;;7.16;58.24;100251.75;4975043;28;19926;-76
2023/02/13 22:09:38;;;;;;;;;;;;;;;7.15;58.96;100254.44;4976044;28;20468;-74
2023/02/13 22:12:03;;;;;;;;;;;;;;;7.14;58.22;100252.72;4975871;28;20427;-74
2023/02/13 22:14:29;;;;;;;;;;;;;;;7.10;58.30;100249.41;4979711;28;19928;-73
2023/02/13 22:16:54;;;;;;;;;;;;;;;7.09;58.57;100239.91;4993180;28;20399;-74
2023/02/13 22:19:19;;;;;;;;;;;;;;;7.06;58.45;100237.44;4993402;28;20391;-73
2023/02/13 22:21:45;;;;;;;;;;;;;;;7.05;57.69;100234.00;4959348;28;19996;-74
2023/02/13 22:24:10;;;;;;;;;;;;;;;7.01;58.69;100229.81;4973951;28;20013;-73
2023/02/13 22:26:36;;;;;;;;;;;;;;;7.01;58.40;100232.41;4975665;28;19924;-74
2023/02/13 22:29:06;;;;;;;;;;;;;;;6.99;58.15;100230.78;4970085;28;20033;-73
2023/02/13 22:31:31;;;;;;;;;;;;;;;6.96;57.95;100234.34;4992890;28;19918;-72
2023/02/13 22:33:56;;;;;;;;;;;;;;;6.95;58.58;100227.44;4975022;28;19925;-73
2023/02/13 22:36:22;;;;;;;;;;;;;;;6.93;58.10;100228.44;4973310;28;19929;-73
2023/02/13 22:38:48;;;;;;;;;;;;;;;6.92;58.15;100224.97;4975555;28;19937;-73
2023/02/13 22:41:17;;;;;;;;;;;;;;;6.90;58.15;100226.78;4975332;28;19918;-73
2023/02/13 22:43:42;;;;;;;;;;;;;;;6.93;61.53;100218.88;4972670;28;19922;-73
2023/02/13 22:46:18;;;;;;;;;;;;;;;6.95;60.21;100214.47;4975243;28;20407;-72
2023/02/13 22:48:44;;;;;;;;;;;;;;;6.94;59.66;100209.34;4970576;28;19922;-74
2023/02/13 22:51:10;;;;;;;;;;;;;;;6.92;59.75;100206.78;4975424;28;20034;-72
2023/02/13 22:53:36;;;;;;;;;;;;;;;6.91;58.96;100201.66;4974622;28;19926;-72
2023/02/13 22:56:01;;;;;;;;;;;;;;;6.87;58.38;100193.16;4953699;28;20364;-72
2023/02/13 22:58:26;;;;;;;;;;;;;;;6.85;58.94;100194.97;4958813;28;19921;-72
2023/02/13 23:00:52;;;;;;;;;;;;;;;6.81;58.73;100194.22;4973843;28;19922;-72
2023/02/13 23:03:17;;;;;;;;;;;;;;;6.79;58.14;100195.19;4975192;28;19929;-73
2023/02/13 23:05:42;;;;;;;;;;;;;;;6.75;57.77;100191.00;4975215;28;19921;-73
2023/02/13 23:08:08;;;;;;;;;;;;;;;6.72;57.97;100185.94;4973196;28;19918;-72
2023/02/13 23:10:33;;;;;;;;;;;;;;;6.68;58.11;100178.25;4958865;28;19961;-73
2023/02/13 23:12:58;;;;;;;;;;;;;;;6.66;57.94;100181.84;4973995;28;19918;-72
2023/02/13 23:15:24;;;;;;;;;;;;;;;6.63;57.87;100177.59;4972666;28;20305;-72
2023/02/13 23:20:33;;;;;;;;;;;;;;;6.60;58.02;100174.28;4976275;28;19929;-74
2023/02/13 23:22:58;;;;;;;;;;;;;;;6.56;57.80;100173.50;4974346;28;19918;-74
2023/02/13 23:25:24;;;;;;;;;;;;;;;6.56;58.18;100175.28;4974668;28;19918;-75
2023/02/13 23:27:49;;;;;;;;;;;;;;;6.52;57.58;100172.78;4973001;28;19922;-75
2023/02/13 23:30:15;;;;;;;;;;;;;;;6.51;57.30;100173.72;4959450;28;20439;-75
2023/02/13 23:32:40;;;;;;;;;;;;;;;6.49;57.69;100174.66;4958427;28;19969;-75
2023/02/13 23:35:06;;;;;;;;;;;;;;;6.47;57.95;100174.72;4975630;28;19976;-73
2023/02/13 23:37:31;;;;;;;;;;;;;;;6.45;57.95;100175.66;4993400;28;19924;-74
2023/02/13 23:39:56;;;;;;;;;;;;;;;6.44;57.94;100176.59;4975980;28;19922;-75
2023/02/13 23:42:22;;;;;;;;;;;;;;;6.42;57.55;100173.19;4993810;28;19921;-74
2023/02/13 23:44:47;;;;;;;;;;;;;;;6.41;57.66;100179.28;4975273;28;19928;-73
2023/02/13 23:47:12;;;;;;;;;;;;;;;6.38;57.67;100180.22;4976456;28;19949;-74
2023/02/13 23:49:37;;;;;;;;;;;;;;;6.38;57.08;100175.03;4960060;28;20381;-73
2023/02/13 23:52:03;;;;;;;;;;;;;;;6.36;57.32;100171.66;4976251;28;20388;-73
2023/02/13 23:54:28;;;;;;;;;;;;;;;6.34;57.49;100178.63;4993426;28;19917;-74
2023/02/13 23:56:53;;;;;;;;;;;;;;;6.32;56.96;100175.25;4975195;28;19929;-74
2023/02/13 23:59:19;;;;;;;;;;;;;;;6.28;57.27;100178.88;4975889;28;19918;-74
